Time;durP1;ratioP1;P1;durP2;ratioP2;P2;SDS_P1;SDS_P2;PMS_P1;PMS_P2;Temp;Humidity;BMP_temperature;BMP_pressure;BME280_temperature;BME280_humidity;BME280_pressure;Samples;Min_cycle;Max_cycle;Signal;HPM_P1;HPM_P2
2021/12/28 00:00:43;;;;;;;3.17;1.52;;;;;;;1.14;100.00;100504.75;4972084;28;20050;-74
2021/12/28 00:03:12;;;;;;;3.58;2.30;;;;;;;1.16;100.00;100513.38;4971301;28;20496;-73
2021/12/28 00:05:40;;;;;;;3.15;1.98;;;;;;;1.11;100.00;100514.78;4958606;28;20083;-73
2021/12/28 00:08:08;;;;;;;4.22;1.90;;;;;;;1.18;100.00;100512.69;4973328;28;20153;-74
2021/12/28 00:10:38;;;;;;;5.68;1.90;;;;;;;1.22;100.00;100523.97;4971664;28;20082;-76
2021/12/28 00:13:07;;;;;;;1.90;1.45;;;;;;;1.23;100.00;100515.53;4971317;28;20138;-76
2021/12/28 00:15:48;;;;;;;3.03;2.05;;;;;;;1.22;100.00;100513.78;4971976;28;20051;-73
2021/12/28 00:18:16;;;;;;;2.25;2.05;;;;;;;1.24;100.00;100519.88;4971912;28;20047;-73
2021/12/28 00:20:48;;;;;;;3.95;2.22;;;;;;;1.25;100.00;100522.50;4970976;28;20129;-74
2021/12/28 00:23:18;;;;;;;6.03;1.83;;;;;;;1.24;100.00;100510.53;4971684;28;20556;-72
2021/12/28 00:25:50;;;;;;;3.80;1.30;;;;;;;1.23;100.00;100513.00;4971681;28;20053;-72
2021/12/28 00:28:18;;;;;;;3.13;1.85;;;;;;;1.19;100.00;100503.38;4962265;28;20481;-72
2021/12/28 00:30:47;;;;;;;3.67;2.15;;;;;;;1.14;100.00;100494.56;4971339;28;20488;-73
2021/12/28 00:33:16;;;;;;;5.93;2.28;;;;;;;1.09;100.00;100493.41;4975358;28;20093;-72
2021/12/28 00:35:45;;;;;;;3.35;2.45;;;;;;;1.12;100.00;100491.91;4975891;28;20082;-73
2021/12/28 00:38:18;;;;;;;5.50;2.65;;;;;;;1.13;100.00;100497.91;4961420;28;20047;-73
2021/12/28 00:40:49;;;;;;;3.80;2.17;;;;;;;1.13;100.00;100510.66;4978100;28;20061;-73
2021/12/28 00:43:18;;;;;;;3.85;1.77;;;;;;;1.13;100.00;100508.13;4975534;28;20105;-73
2021/12/28 00:45:47;;;;;;;4.75;1.70;;;;;;;1.15;100.00;100519.28;4975313;28;20059;-73
2021/12/28 00:48:17;;;;;;;6.72;1.90;;;;;;;1.13;100.00;100518.31;4975433;28;20496;-73
2021/12/28 00:50:46;;;;;;;4.78;2.50;;;;;;;1.13;100.00;100524.28;4975485;28;20150;-73
2021/12/28 00:53:15;;;;;;;7.43;2.70;;;;;;;1.14;100.00;100522.59;4974887;28;20128;-72
2021/12/28 00:55:43;;;;;;;5.60;2.75;;;;;;;1.15;100.00;100516.75;4975258;28;20047;-73
2021/12/28 00:58:13;;;;;;;6.25;2.30;;;;;;;1.08;100.00;100504.38;4975014;28;20050;-73
2021/12/28 01:00:42;;;;;;;5.07;2.60;;;;;;;1.02;100.00;100503.19;4975001;28;20097;-73
2021/12/28 01:03:12;;;;;;;5.32;2.75;;;;;;;1.04;100.00;100510.94;4974415;28;20086;-73
2021/12/28 01:05:40;;;;;;;4.20;2.22;;;;;;;1.06;100.00;100508.50;4974924;28;20051;-73
2021/12/28 01:08:10;;;;;;;3.78;2.10;;;;;;;1.00;100.00;100507.31;4976272;28;20070;-74
2021/12/28 01:10:42;;;;;;;7.13;2.50;;;;;;;0.91;100.00;100491.44;4974190;28;20051;-73
2021/12/28 01:13:11;;;;;;;3.42;1.95;;;;;;;0.96;100.00;100499.38;4973563;28;20054;-72
2021/12/28 01:15:42;;;;;;;5.65;2.03;;;;;;;0.98;100.00;100495.25;4974734;28;20046;-72
2021/12/28 01:18:12;;;;;;;3.00;1.73;;;;;;;0.99;100.00;100492.81;4974543;28;20090;-75
2021/12/28 01:20:41;;;;;;;7.00;2.47;;;;;;;0.95;100.00;100483.22;4972563;28;20050;-72
2021/12/28 01:23:10;;;;;;;3.95;2.20;;;;;;;0.90;100.00;100476.97;4963123;28;20117;-72
2021/12/28 01:25:39;;;;;;;6.35;2.78;;;;;;;0.88;100.00;100475.09;4974447;28;20046;-74
2021/12/28 01:28:08;;;;;;;4.70;2.17;;;;;;;0.87;100.00;100471.69;4974351;28;20059;-72
2021/12/28 01:30:36;;;;;;;4.03;1.88;;;;;;;0.89;100.00;100477.72;4974410;28;20059;-73
2021/12/28 01:33:06;;;;;;;4.22;1.95;;;;;;;0.93;100.00;100477.16;4974069;28;20105;-74
2021/12/28 01:35:35;;;;;;;4.18;2.47;;;;;;;0.96;100.00;100479.00;4974171;28;20485;-74
2021/12/28 01:38:04;;;;;;;7.72;1.95;;;;;;;0.98;100.00;100478.31;4974263;28;20541;-74
2021/12/28 01:40:35;;;;;;;7.63;2.42;;;;;;;0.99;100.00;100481.75;4975421;28;20051;-72
2021/12/28 01:43:10;;;;;;;2.88;2.13;;;;;;;0.98;100.00;100473.22;4975872;28;20047;-72
2021/12/28 01:45:42;;;;;;;6.07;3.00;;;;;;;0.98;100.00;100478.31;4974339;28;20054;-72
2021/12/28 01:48:16;;;;;;;3.83;2.08;;;;;;;0.98;100.00;100478.31;4974004;28;20047;-72
2021/12/28 01:50:45;;;;;;;3.97;2.20;;;;;;;0.97;100.00;100476.56;4974025;28;20492;-73
2021/12/28 01:53:14;;;;;;;7.35;2.33;;;;;;;0.98;100.00;100470.66;4973549;28;20050;-72
2021/12/28 01:55:44;;;;;;;4.97;2.13;;;;;;;0.98;100.00;100465.56;4974478;28;20465;-71
2021/12/28 01:58:13;;;;;;;5.63;2.60;;;;;;;0.98;100.00;100462.16;4974286;28;20544;-72
2021/12/28 02:00:43;;;;;;;3.53;2.40;;;;;;;1.01;100.00;100457.28;4974136;28;20074;-72
2021/12/28 02:03:15;;;;;;;5.25;2.38;;;;;;;1.01;100.00;100458.13;4973543;28;20121;-74
2021/12/28 02:05:44;;;;;;;3.70;2.00;;;;;;;1.03;100.00;100458.22;4973853;28;20050;-73
2021/12/28 02:08:14;;;;;;;3.80;2.33;;;;;;;1.03;100.00;100454.03;4975113;28;20113;-75
2021/12/28 02:10:44;;;;;;;5.50;2.88;;;;;;;1.05;100.00;100459.19;4973806;28;20051;-73
2021/12/28 02:13:13;;;;;;;4.78;2.65;;;;;;;1.07;100.00;100461.84;4973712;28;20051;-74
2021/12/28 02:15:41;;;;;;;4.88;2.85;;;;;;;1.07;100.00;100462.72;4974282;28;20043;-72
2021/12/28 02:18:13;;;;;;;6.30;3.67;;;;;;;1.08;100.00;100473.78;4973601;28;20113;-73
2021/12/28 02:20:44;;;;;;;7.35;2.90;;;;;;;1.05;100.00;100474.47;4975310;28;20105;-73
2021/12/28 02:23:13;;;;;;;11.18;3.70;;;;;;;1.05;100.00;100471.94;4959814;28;20097;-72
2021/12/28 02:25:42;;;;;;;4.57;2.00;;;;;;;1.07;100.00;100472.03;4973308;28;20547;-72
2021/12/28 02:28:13;;;;;;;6.97;2.85;;;;;;;1.08;100.00;100477.25;4973050;28;20054;-71
2021/12/28 02:30:45;;;;;;;8.75;2.75;;;;;;;1.08;100.00;100478.88;4973635;28;20051;-73
2021/12/28 02:33:14;;;;;;;6.53;2.08;;;;;;;1.09;100.00;100494.28;4973048;28;20077;-73
2021/12/28 02:35:44;;;;;;;3.45;2.08;;;;;;;1.11;100.00;100486.75;4973162;28;20467;-72
2021/12/28 02:38:13;;;;;;;5.60;2.40;;;;;;;1.12;100.00;100491.03;4973225;28;20058;-71
2021/12/28 02:40:44;;;;;;;5.20;2.22;;;;;;;1.11;100.00;100481.66;4973352;28;20047;-72
2021/12/28 02:43:15;;;;;;;7.25;2.08;;;;;;;1.06;100.00;100476.25;4975025;28;20069;-73
2021/12/28 02:45:50;;;;;;;6.72;3.00;;;;;;;1.01;100.00;100473.44;4974342;28;20075;-73
2021/12/28 02:48:19;;;;;;;5.80;2.45;;;;;;;1.03;100.00;100476.97;4973204;28;20082;-73
2021/12/28 02:50:51;;;;;;;7.82;2.72;;;;;;;1.06;100.00;100467.75;4973120;28;20134;-73
2021/12/28 02:53:20;;;;;;;7.80;2.60;;;;;;;1.08;100.00;100468.69;4972218;28;20082;-72
2021/12/28 02:55:50;;;;;;;4.15;2.63;;;;;;;1.09;100.00;100460.28;4972162;28;20536;-73
2021/12/28 02:58:30;;;;;;;5.22;3.22;;;;;;;1.09;100.00;100465.38;4972887;28;20096;-74
2021/12/28 03:01:03;;;;;;;5.00;2.72;;;;;;;1.10;100.00;100459.47;4972484;28;20201;-72
2021/12/28 03:03:34;;;;;;;6.00;3.20;;;;;;;1.09;100.00;100461.16;4982548;28;20043;-72
2021/12/28 03:06:06;;;;;;;4.65;2.33;;;;;;;1.11;100.00;100454.50;4963059;28;20082;-71
2021/12/28 03:08:38;;;;;;;10.38;3.85;;;;;;;1.10;100.00;100456.94;4974067;28;20603;-71
2021/12/28 03:11:07;;;;;;;4.20;2.35;;;;;;;1.09;100.00;100460.28;4972253;28;20560;-72
2021/12/28 03:13:40;;;;;;;3.60;2.70;;;;;;;1.11;100.00;100461.25;4971617;28;20555;-72
2021/12/28 03:16:09;;;;;;;4.72;2.28;;;;;;;1.14;100.00;100461.44;4973033;28;20102;-72
2021/12/28 03:18:38;;;;;;;5.68;2.63;;;;;;;1.16;100.00;100459.88;4972265;28;20074;-72
2021/12/28 03:21:12;;;;;;;3.03;2.00;;;;;;;1.17;100.00;100453.97;4972206;28;20082;-72
2021/12/28 03:23:41;;;;;;;3.45;2.20;;;;;;;1.16;100.00;100452.22;4972368;28;20055;-72
2021/12/28 03:26:11;;;;;;;5.43;2.30;;;;;;;1.15;100.00;100450.47;4972424;28;20105;-72
2021/12/28 03:28:42;;;;;;;4.53;2.38;;;;;;;1.14;100.00;100449.56;4971920;28;20051;-73
2021/12/28 03:31:14;;;;;;;3.70;2.13;;;;;;;1.17;100.00;100453.97;4972177;28;20051;-73
2021/12/28 03:33:44;;;;;;;7.00;2.95;;;;;;;1.18;100.00;100446.44;4971580;28;20090;-72
2021/12/28 03:36:16;;;;;;;11.15;2.38;;;;;;;1.19;100.00;100443.13;4972204;28;20047;-74
2021/12/28 03:38:46;;;;;;;5.50;2.80;;;;;;;1.22;100.00;100450.94;4972157;28;20046;-71
2021/12/28 03:41:15;;;;;;;5.43;2.63;;;;;;;1.25;100.00;100452.78;4972090;28;20082;-71
2021/12/28 03:43:45;;;;;;;7.78;1.95;;;;;;;1.27;100.00;100451.22;4971713;28;20086;-71
2021/12/28 03:46:14;;;;;;;4.55;1.92;;;;;;;1.28;100.00;100442.78;4975607;28;20078;-71
2021/12/28 03:48:44;;;;;;;4.00;2.28;;;;;;;1.29;100.00;100452.22;4972053;28;20109;-71
2021/12/28 03:51:14;;;;;;;4.38;2.60;;;;;;;1.29;100.00;100457.31;4983436;28;20058;-73
2021/12/28 03:53:43;;;;;;;4.50;2.45;;;;;;;1.29;100.00;100459.84;4973025;28;20043;-74
2021/12/28 03:56:12;;;;;;;4.43;1.95;;;;;;;1.30;100.00;100466.69;4972218;28;20097;-72
2021/12/28 03:58:43;;;;;;;5.88;2.78;;;;;;;1.31;100.00;100468.47;4972311;28;20118;-73
2021/12/28 04:01:14;;;;;;;6.63;2.67;;;;;;;1.31;100.00;100457.41;4972326;28;20054;-72
2021/12/28 04:03:43;;;;;;;5.38;2.30;;;;;;;1.28;100.00;100457.19;4971632;28;20106;-71
2021/12/28 04:06:12;;;;;;;6.15;2.00;;;;;;;1.26;100.00;100459.69;4972020;28;20055;-71
2021/12/28 04:08:44;;;;;;;6.15;2.45;;;;;;;1.25;100.00;100463.00;4973062;28;20054;-72
2021/12/28 04:11:25;;;;;;;4.90;2.35;;;;;;;1.23;100.00;100454.38;4972056;28;20154;-74
2021/12/28 04:13:57;;;;;;;3.25;1.83;;;;;;;1.19;100.00;100447.31;4971268;28;20050;-74
2021/12/28 04:16:26;;;;;;;3.92;2.20;;;;;;;1.15;100.00;100447.94;4972284;28;20047;-73
2021/12/28 04:18:55;;;;;;;3.72;1.77;;;;;;;0.99;100.00;100429.13;4971655;28;20053;-71
2021/12/28 04:21:24;;;;;;;4.18;1.90;;;;;;;1.08;100.00;100455.97;4958873;28;20130;-73
2021/12/28 04:23:54;;;;;;;4.07;1.90;;;;;;;1.05;100.00;100454.09;4963928;28;20098;-72
2021/12/28 04:26:24;;;;;;;3.60;1.95;;;;;;;0.98;100.00;100452.84;4971349;28;20062;-72
2021/12/28 04:28:52;;;;;;;7.70;1.98;;;;;;;0.98;100.00;100455.38;4971819;28;20089;-71
2021/12/28 04:31:21;;;;;;;4.90;1.98;;;;;;;0.98;100.00;100452.84;4971675;28;20051;-72
2021/12/28 04:33:49;;;;;;;5.28;1.85;;;;;;;0.97;100.00;100458.72;4970801;28;20072;-73
2021/12/28 04:36:19;;;;;;;4.72;1.25;;;;;;;0.98;100.00;100457.06;4971471;28;20050;-75
2021/12/28 04:38:47;;;;;;;2.67;1.55;;;;;;;0.94;100.00;100440.72;4971557;28;20431;-74
2021/12/28 04:41:18;;;;;;;4.35;1.77;;;;;;;0.92;100.00;100442.28;4971626;28;20497;-75
2021/12/28 04:43:48;;;;;;;4.72;1.55;;;;;;;0.90;100.00;100448.06;4970832;28;20065;-74
2021/12/28 04:46:17;;;;;;;2.65;1.35;;;;;;;0.91;100.00;100445.59;4972839;28;20047;-73
2021/12/28 04:48:45;;;;;;;2.70;1.42;;;;;;;0.94;100.00;100442.34;4973782;28;20070;-72
2021/12/28 04:51:14;;;;;;;3.85;2.13;;;;;;;0.94;100.00;100445.81;4971693;28;20054;-75
2021/12/28 04:53:42;;;;;;;3.72;1.90;;;;;;;0.93;100.00;100438.94;4971060;28;20051;-75
2021/12/28 04:56:11;;;;;;;5.13;1.95;;;;;;;0.97;100.00;100423.06;4971349;28;20102;-74
2021/12/28 04:58:41;;;;;;;3.50;1.50;;;;;;;0.98;100.00;100419.72;4971148;28;20055;-74
2021/12/28 05:01:10;;;;;;;1.83;1.40;;;;;;;1.01;100.00;100417.38;4971039;28;20043;-75
2021/12/28 05:03:38;;;;;;;5.43;1.38;;;;;;;1.03;100.00;100399.63;4970795;28;20050;-74
2021/12/28 05:06:07;;;;;;;5.45;1.67;;;;;;;1.06;100.00;100404.06;4971450;28;20527;-74
2021/12/28 05:08:35;;;;;;;4.38;1.90;;;;;;;1.12;100.00;100406.94;4972736;28;20591;-72
2021/12/28 05:11:04;;;;;;;2.42;1.58;;;;;;;1.15;100.00;100409.72;4970593;28;20078;-71
2021/12/28 05:13:32;;;;;;;1.73;1.20;;;;;;;1.19;100.00;100416.72;4970856;28;20501;-71
2021/12/28 05:16:02;;;;;;;3.75;1.83;;;;;;;1.17;100.00;100403.00;4971344;28;20469;-71
2021/12/28 05:18:31;;;;;;;2.17;1.25;;;;;;;1.22;100.00;100409.28;4971231;28;20047;-71
2021/12/28 05:21:00;;;;;;;4.18;1.58;;;;;;;1.24;100.00;100400.06;4974661;28;20114;-71
2021/12/28 05:23:28;;;;;;;2.38;1.60;;;;;;;1.24;100.00;100405.19;4973861;28;20150;-72
2021/12/28 05:25:57;;;;;;;4.70;1.50;;;;;;;1.21;100.00;100400.78;4974459;28;20054;-72
2021/12/28 05:28:25;;;;;;;2.72;1.65;;;;;;;1.20;100.00;100393.03;4965229;28;20101;-72
2021/12/28 05:30:54;;;;;;;2.75;1.25;;;;;;;1.18;100.00;100392.06;4974645;28;20050;-73
2021/12/28 05:33:24;;;;;;;5.18;1.88;;;;;;;1.15;100.00;100391.88;4973978;28;20481;-73
2021/12/28 05:35:53;;;;;;;1.45;1.00;;;;;;;1.13;100.00;100386.66;4974451;28;20545;-74
2021/12/28 05:38:21;;;;;;;8.15;1.77;;;;;;;1.14;100.00;100395.19;4974352;28;20114;-73
2021/12/28 05:40:50;;;;;;;3.70;1.75;;;;;;;1.11;100.00;100393.34;4974968;28;20085;-72
2021/12/28 05:43:18;;;;;;;2.90;1.55;;;;;;;1.13;100.00;100396.88;4974005;28;20144;-73
2021/12/28 05:45:47;;;;;;;6.68;1.95;;;;;;;1.15;100.00;100395.28;4974280;28;20055;-73
2021/12/28 05:48:16;;;;;;;2.53;1.58;;;;;;;1.17;100.00;100393.72;4974807;28;20511;-73
2021/12/28 05:50:46;;;;;;;3.42;1.80;;;;;;;1.17;100.00;100387.72;4977090;28;20110;-72
2021/12/28 05:53:14;;;;;;;7.22;1.75;;;;;;;1.20;100.00;100393.03;4974209;28;20109;-73
2021/12/28 05:55:43;;;;;;;3.15;1.33;;;;;;;1.22;100.00;100391.44;4974314;28;20669;-73
2021/12/28 05:58:12;;;;;;;4.00;1.67;;;;;;;1.21;100.00;100387.13;4974180;28;20043;-72
2021/12/28 06:00:41;;;;;;;4.53;1.80;;;;;;;1.17;100.00;100393.72;4973978;28;20050;-73
2021/12/28 06:03:09;;;;;;;2.58;1.70;;;;;;;1.16;100.00;100391.06;4973373;28;20105;-74
2021/12/28 06:05:38;;;;;;;6.10;2.00;;;;;;;1.13;100.00;100399.41;4960855;28;20102;-72
2021/12/28 06:08:08;;;;;;;4.90;1.75;;;;;;;1.16;100.00;100391.06;4975484;28;20059;-73
2021/12/28 06:10:43;;;;;;;2.83;1.70;;;;;;;1.16;100.00;100388.53;4974033;28;20054;-74
2021/12/28 06:13:11;;;;;;;3.42;1.85;;;;;;;1.13;100.00;100390.91;4973339;28;20051;-74
2021/12/28 06:15:40;;;;;;;5.45;2.05;;;;;;;1.09;100.00;100387.25;4973875;28;20082;-74
2021/12/28 06:18:08;;;;;;;3.15;1.98;;;;;;;1.06;100.00;100389.63;4973271;28;20086;-73
2021/12/28 06:20:37;;;;;;;3.88;1.65;;;;;;;0.98;100.00;100384.03;4973512;28;20055;-73
2021/12/28 06:23:07;;;;;;;2.58;1.23;;;;;;;0.93;100.00;100382.00;4959727;28;20051;-75
2021/12/28 06:25:35;;;;;;;6.88;1.98;;;;;;;0.80;100.00;100386.38;4973735;28;20527;-74
2021/12/28 06:28:04;;;;;;;2.28;1.02;;;;;;;0.78;100.00;100377.75;4973504;28;20081;-73
2021/12/28 06:30:33;;;;;;;3.65;1.77;;;;;;;0.75;100.00;100390.25;4973697;28;20046;-73
2021/12/28 06:33:02;;;;;;;1.50;1.23;;;;;;;0.77;100.00;100390.38;4959299;28;20051;-73
2021/12/28 06:35:30;;;;;;;2.25;1.55;;;;;;;0.69;100.00;100394.09;4973640;28;20086;-74
2021/12/28 06:37:59;;;;;;;2.67;1.63;;;;;;;0.68;100.00;100399.97;4973256;28;20050;-73
2021/12/28 06:40:29;;;;;;;6.07;1.65;;;;;;;0.71;100.00;100401.06;4973405;28;20489;-73
2021/12/28 06:42:58;;;;;;;2.28;1.20;;;;;;;0.75;100.00;100399.56;4971504;28;20051;-75
2021/12/28 06:45:27;;;;;;;2.42;1.35;;;;;;;0.74;100.00;100400.38;4973743;28;20434;-74
2021/12/28 06:47:55;;;;;;;4.10;1.95;;;;;;;0.73;100.00;100399.47;4973457;28;20082;-74
2021/12/28 06:50:31;;;;;;;2.10;1.45;;;;;;;0.75;100.00;100404.66;4975670;28;20097;-74
2021/12/28 06:52:59;;;;;;;3.70;1.75;;;;;;;0.76;100.00;100403.91;4973446;28;20111;-72
2021/12/28 06:55:30;;;;;;;2.67;1.27;;;;;;;0.79;100.00;100404.09;4973287;28;20770;-75
2021/12/28 06:57:58;;;;;;;2.90;1.27;;;;;;;0.79;100.00;100404.09;4972772;28;20488;-74
2021/12/28 07:00:27;;;;;;;1.98;1.38;;;;;;;0.77;100.00;100409.06;4973448;28;20086;-74
2021/12/28 07:02:55;;;;;;;4.45;2.03;;;;;;;0.76;100.00;100401.34;4960185;28;20055;-73
2021/12/28 07:05:24;;;;;;;1.92;1.30;;;;;;;0.76;100.00;100401.34;4971494;28;20500;-74
2021/12/28 07:07:52;;;;;;;2.35;1.35;;;;;;;0.77;100.00;100395.47;4974455;28;20055;-72
2021/12/28 07:10:21;;;;;;;2.30;1.20;;;;;;;0.73;100.00;100413.88;4972719;28;20118;-72
2021/12/28 07:12:52;;;;;;;1.65;1.15;;;;;;;0.73;100.00;100401.13;4972488;28;20126;-72
2021/12/28 07:15:21;;;;;;;2.78;1.25;;;;;;;0.72;100.00;100401.94;4972657;28;20050;-72
2021/12/28 07:17:50;;;;;;;1.80;0.88;;;;;;;0.72;100.00;100397.72;4972749;28;20082;-73
2021/12/28 07:20:19;;;;;;;2.28;0.82;;;;;;;0.72;100.00;100394.31;4972439;28;20055;-73
2021/12/28 07:22:48;;;;;;;2.33;1.00;;;;;;;0.63;100.00;100385.28;4957977;28;20077;-71
2021/12/28 07:25:16;;;;;;;2.50;1.00;;;;;;;0.56;100.00;100367.88;4972639;28;20101;-74
2021/12/28 07:27:45;;;;;;;3.42;0.73;;;;;;;0.53;100.00;100367.69;4972094;28;20498;-72
2021/12/28 07:30:15;;;;;;;1.48;0.95;;;;;;;0.50;100.00;100367.47;4973040;28;20051;-73
2021/12/28 07:32:44;;;;;;;2.40;0.68;;;;;;;0.51;100.00;100360.75;4972024;28;20551;-73
2021/12/28 07:35:13;;;;;;;1.98;1.02;;;;;;;0.52;100.00;100372.66;4972907;28;20086;-72
2021/12/28 07:37:41;;;;;;;1.45;0.82;;;;;;;0.55;100.00;100378.84;4972112;28;20082;-71
2021/12/28 07:40:11;;;;;;;0.73;0.35;;;;;;;0.55;100.00;100385.56;4972817;28;20107;-73
2021/12/28 07:42:40;;;;;;;1.30;0.57;;;;;;;0.59;100.00;100383.31;4970728;28;20162;-73
2021/12/28 07:45:11;;;;;;;1.20;0.50;;;;;;;0.62;100.00;100395.41;4972275;28;20055;-73
2021/12/28 07:47:42;;;;;;;1.23;0.85;;;;;;;0.68;100.00;100397.44;4971870;28;20051;-71
2021/12/28 07:50:12;;;;;;;1.63;0.90;;;;;;;0.72;100.00;100396.84;4972698;28;20047;-72
2021/12/28 07:52:41;;;;;;;0.93;0.43;;;;;;;0.75;100.00;100397.91;4974410;28;20587;-72
2021/12/28 07:55:11;;;;;;;1.02;0.75;;;;;;;0.78;100.00;100409.94;4959986;28;20054;-72
2021/12/28 07:57:40;;;;;;;1.33;0.47;;;;;;;0.76;100.00;100399.69;4972412;28;20110;-74
2021/12/28 08:00:11;;;;;;;0.47;0.47;;;;;;;0.79;100.00;100388.81;4971708;28;20058;-73
2021/12/28 08:02:42;;;;;;;1.48;0.63;;;;;;;0.80;100.00;100391.47;4971276;28;20066;-73
2021/12/28 08:05:11;;;;;;;2.95;0.43;;;;;;;0.84;100.00;100395.06;4971322;28;20050;-72
2021/12/28 08:07:40;;;;;;;1.20;0.50;;;;;;;0.87;100.00;100391.81;4973586;28;20054;-73
2021/12/28 08:10:10;;;;;;;0.75;0.45;;;;;;;0.90;100.00;100381.84;4972223;28;20085;-73
2021/12/28 08:12:39;;;;;;;0.95;0.63;;;;;;;0.93;100.00;100382.88;4971112;28;20051;-71
2021/12/28 08:15:09;;;;;;;1.08;0.30;;;;;;;0.94;100.00;100379.56;4972441;28;20050;-71
2021/12/28 08:17:38;;;;;;;1.45;0.68;;;;;;;0.95;100.00;100377.91;4971472;28;20133;-72
2021/12/28 08:20:10;;;;;;;5.20;0.70;;;;;;;0.94;100.00;100371.03;4971816;28;20129;-71
2021/12/28 08:22:40;;;;;;;1.00;0.40;;;;;;;0.88;100.00;100363.91;4958095;28;20614;-71
2021/12/28 08:25:10;;;;;;;1.88;0.55;;;;;;;0.88;100.00;100369.00;4971744;28;20050;-71
2021/12/28 08:27:40;;;;;;;2.15;0.40;;;;;;;0.89;100.00;100372.41;4971549;28;20134;-71
2021/12/28 08:30:10;;;;;;;0.43;0.40;;;;;;;0.93;100.00;100382.00;4971764;28;20051;-70
2021/12/28 08:32:39;;;;;;;0.40;0.40;;;;;;;0.97;100.00;100389.94;4970863;28;20257;-71
2021/12/28 08:35:10;;;;;;;0.30;0.25;;;;;;;0.97;100.00;100379.75;4971892;28;20047;-71
2021/12/28 08:37:39;;;;;;;1.63;0.57;;;;;;;0.94;100.00;100379.56;4971469;28;20086;-71
2021/12/28 08:40:10;;;;;;;1.80;0.60;;;;;;;0.96;100.00;100378.00;4971832;28;20605;-71
2021/12/28 08:42:39;;;;;;;2.25;0.52;;;;;;;0.96;100.00;100378.00;4971339;28;20101;-71
2021/12/28 08:45:09;;;;;;;1.95;0.70;;;;;;;0.96;100.00;100360.19;4971947;28;20563;-71
2021/12/28 08:47:37;;;;;;;3.80;0.80;;;;;;;0.98;100.00;100367.88;4971623;28;20047;-71
2021/12/28 08:50:11;;;;;;;5.68;0.65;;;;;;;0.99;100.00;100372.22;4971348;28;20051;-71
2021/12/28 08:52:40;;;;;;;1.92;0.60;;;;;;;1.00;100.00;100376.50;4971357;28;20496;-71
2021/12/28 08:55:09;;;;;;;0.35;0.30;;;;;;;1.04;100.00;100376.78;4966555;28;20557;-71
2021/12/28 08:57:38;;;;;;;0.95;0.40;;;;;;;1.08;100.00;100380.41;4973145;28;20051;-71
2021/12/28 09:00:11;;;;;;;3.67;0.30;;;;;;;1.08;100.00;100388.06;4975184;28;20106;-71
2021/12/28 09:02:39;;;;;;;0.57;0.50;;;;;;;1.12;100.00;100390.00;4974567;28;20074;-71
2021/12/28 09:05:10;;;;;;;1.98;0.70;;;;;;;1.16;100.00;100385.97;4975243;28;20086;-71
2021/12/28 09:07:39;;;;;;;0.60;0.40;;;;;;;1.16;100.00;100391.06;4976739;28;20097;-71
2021/12/28 09:10:09;;;;;;;0.35;0.35;;;;;;;1.16;100.00;100393.63;4943559;29;20505;-71
2021/12/28 09:12:37;;;;;;;0.80;0.38;;;;;;;1.18;100.00;100394.59;4955130;29;20142;-71
2021/12/28 09:15:07;;;;;;;2.17;0.47;;;;;;;1.22;100.00;100386.34;4953367;28;20055;-72
2021/12/28 09:17:35;;;;;;;1.00;0.28;;;;;;;1.23;100.00;100383.88;4954993;28;20541;-71
2021/12/28 09:20:08;;;;;;;0.57;0.40;;;;;;;1.22;100.00;100383.81;4955407;28;20282;-71
2021/12/28 09:22:38;;;;;;;0.50;0.38;;;;;;;1.23;100.00;100381.34;4941488;29;20548;-71
2021/12/28 09:25:08;;;;;;;0.47;0.47;;;;;;;1.26;100.00;100378.13;4946171;29;20076;-72
2021/12/28 09:27:38;;;;;;;0.93;0.35;;;;;;;1.24;100.00;100377.16;4940040;28;20047;-71
2021/12/28 09:30:08;;;;;;;1.05;0.45;;;;;;;1.19;100.00;100369.22;4945567;28;20138;-71
2021/12/28 09:32:37;;;;;;;0.30;0.30;;;;;;;1.20;100.00;100357.34;4949716;28;20059;-71
2021/12/28 09:35:06;;;;;;;1.42;0.28;;;;;;;1.21;100.00;100370.19;4945130;28;20083;-71
2021/12/28 09:37:34;;;;;;;0.40;0.30;;;;;;;1.25;100.00;100376.34;4954329;28;20098;-72
2021/12/28 09:40:08;;;;;;;0.80;0.43;;;;;;;1.28;100.00;100370.53;4943597;28;20090;-72
2021/12/28 09:42:36;;;;;;;1.25;0.40;;;;;;;1.24;100.00;100370.38;4940743;29;20047;-72
2021/12/28 09:45:08;;;;;;;0.55;0.38;;;;;;;1.25;100.00;100381.44;4939341;28;20055;-71
2021/12/28 09:47:36;;;;;;;1.38;0.63;;;;;;;1.29;100.00;100370.66;4954546;28;20051;-72
2021/12/28 09:50:07;;;;;;;2.40;0.65;;;;;;;1.36;100.00;100374.44;4941443;28;20054;-72
2021/12/28 09:52:36;;;;;;;0.35;0.30;;;;;;;1.40;100.00;100377.28;4954553;28;20102;-71
2021/12/28 09:55:07;;;;;;;0.63;0.40;;;;;;;1.40;100.00;100376.41;4951009;28;20064;-72
2021/12/28 09:57:35;;;;;;;2.95;0.40;;;;;;;1.34;100.00;100371.78;4950903;28;20086;-72
2021/12/28 10:00:07;;;;;;;0.40;0.20;;;;;;;1.36;100.00;100382.97;4938158;28;20060;-71
2021/12/28 10:02:36;;;;;;;0.80;0.45;;;;;;;1.38;100.00;100373.75;4935361;29;20052;-71
2021/12/28 10:05:10;;;;;;;3.90;0.50;;;;;;;1.42;100.00;100377.34;4937735;28;20063;-71
2021/12/28 10:07:43;;;;;;;1.08;0.63;;;;;;;1.44;100.00;100389.41;4954523;28;20047;-72
2021/12/28 10:10:14;;;;;;;0.57;0.20;;;;;;;1.46;100.00;100387.81;4973824;28;20059;-72
2021/12/28 10:12:45;;;;;;;1.00;0.52;;;;;;;1.49;100.00;100397.34;4973596;28;20121;-72
2021/12/28 10:15:15;;;;;;;0.55;0.20;;;;;;;1.49;100.00;100391.34;4973677;28;20051;-72
2021/12/28 10:17:46;;;;;;;0.75;0.45;;;;;;;1.52;100.00;100392.41;4973888;28;20131;-71
2021/12/28 10:20:19;;;;;;;0.45;0.25;;;;;;;1.56;100.00;100401.09;4975237;28;20042;-71
2021/12/28 10:22:49;;;;;;;0.73;0.50;;;;;;;1.59;100.00;100398.75;4972983;28;20098;-71
2021/12/28 10:25:22;;;;;;;0.10;0.10;;;;;;;1.62;100.00;100394.72;4973926;28;20055;-73
2021/12/28 10:27:50;;;;;;;;;;;;;;;1.66;100.00;100398.34;4974007;28;20054;-71
2021/12/28 10:30:22;;;;;;;1.10;0.40;;;;;;;1.65;100.00;100402.56;4973870;28;20379;-71
2021/12/28 10:32:53;;;;;;;1.10;0.35;;;;;;;1.67;100.00;100395.88;4973050;28;20074;-71
2021/12/28 10:35:24;;;;;;;1.05;0.63;;;;;;;1.71;100.00;100399.47;4973812;28;20105;-71
2021/12/28 10:37:56;;;;;;;2.53;0.75;;;;;;;1.73;100.00;100397.91;4973140;28;20082;-72
2021/12/28 10:40:30;;;;;;;4.75;0.80;;;;;;;1.77;100.00;100399.84;4973816;28;20051;-71
2021/12/28 10:43:05;;;;;;;0.40;0.40;;;;;;;1.77;100.00;100404.06;4972927;28;20058;-71
2021/12/28 10:45:37;;;;;;;2.58;0.60;;;;;;;1.78;100.00;100405.81;4973092;28;20050;-71
2021/12/28 10:48:09;;;;;;;1.88;0.63;;;;;;;1.78;100.00;100398.16;4972994;28;20047;-72
2021/12/28 10:50:41;;;;;;;1.38;0.38;;;;;;;1.78;100.00;100393.94;4972130;28;20489;-72
2021/12/28 10:53:17;;;;;;;0.30;0.20;;;;;;;1.79;100.00;100400.81;4972295;28;20102;-73
2021/12/28 10:55:51;;;;;;;0.82;0.50;;;;;;;1.82;100.00;100401.00;4973307;28;20090;-72
2021/12/28 10:58:26;;;;;;;0.30;0.22;;;;;;;1.82;100.00;100408.66;4976880;28;20082;-72
2021/12/28 11:00:55;;;;;;;0.40;0.20;;;;;;;1.82;100.00;100406.09;4961858;28;20050;-72
2021/12/28 11:03:32;;;;;;;0.85;0.47;;;;;;;1.81;100.00;100406.91;4972621;28;20050;-72
2021/12/28 11:06:02;;;;;;;0.63;0.35;;;;;;;1.82;100.00;100406.09;4973061;28;20039;-72
2021/12/28 11:08:31;;;;;;;4.88;0.90;;;;;;;1.84;100.00;100406.19;4974499;28;20519;-72
2021/12/28 11:11:03;;;;;;;1.23;0.28;;;;;;;1.84;100.00;100414.72;4972524;28;20572;-72
2021/12/28 11:13:34;;;;;;;0.22;0.20;;;;;;;1.84;100.00;100390.88;4972281;28;20109;-72
2021/12/28 11:16:04;;;;;;;2.30;0.85;;;;;;;1.86;100.00;100395.28;4972758;28;20051;-71
2021/12/28 11:18:35;;;;;;;2.17;0.50;;;;;;;1.88;100.00;100391.16;4972110;28;20242;-71
2021/12/28 11:21:12;;;;;;;0.20;0.13;;;;;;;1.88;100.00;100388.59;4969577;28;20535;-71
2021/12/28 11:23:41;;;;;;;0.52;0.40;;;;;;;1.88;100.00;100382.63;4963516;28;20098;-71
2021/12/28 11:26:15;;;;;;;1.00;0.30;;;;;;;1.88;100.00;100380.94;4972902;28;20067;-72
2021/12/28 11:28:53;;;;;;;0.20;0.20;;;;;;;1.83;100.00;100374.72;4972634;28;20050;-72
2021/12/28 11:31:23;;;;;;;0.13;0.10;;;;;;;1.81;100.00;100378.84;4972190;28;20058;-71
2021/12/28 11:34:02;;;;;;;0.40;0.40;;;;;;;1.84;100.00;100375.59;4971771;28;20567;-71
2021/12/28 11:36:33;;;;;;;2.97;0.40;;;;;;;1.81;100.00;100376.28;4972542;28;20473;-71